createdAt,value
2022-08-05T00:01:36.159Z,8.40
2022-08-05T00:04:18.768Z,8.30
2022-08-05T00:06:47.198Z,8.13
2022-08-05T00:09:16.002Z,8.40
2022-08-05T00:11:48.683Z,8.23
2022-08-05T00:14:22.490Z,7.90
2022-08-05T00:16:54.845Z,8.03
2022-08-05T00:19:23.444Z,7.97
2022-08-05T00:21:54.107Z,8.00
2022-08-05T00:24:24.861Z,8.33
2022-08-05T00:27:00.225Z,8.10
2022-08-05T00:29:37.847Z,8.10
2022-08-05T00:32:12.809Z,7.70
2022-08-05T00:35:05.288Z,8.40
2022-08-05T00:37:50.793Z,8.10
2022-08-05T00:40:27.187Z,9.33
2022-08-05T00:43:02.456Z,9.00
2022-08-05T00:45:38.650Z,9.13
2022-08-05T00:48:09.515Z,9.23
2022-08-05T00:50:39.251Z,8.57
2022-08-05T00:53:09.512Z,9.30
2022-08-05T00:55:56.121Z,7.60
2022-08-05T00:58:27.165Z,9.10
2022-08-05T01:00:55.480Z,8.30
2022-08-05T01:03:23.481Z,8.93
2022-08-05T01:05:54.578Z,8.40
2022-08-05T01:08:40.189Z,9.87
2022-08-05T01:11:33.525Z,8.83
2022-08-05T01:14:27.957Z,9.50
2022-08-05T01:17:26.736Z,9.13
2022-08-05T01:20:05.637Z,8.67
2022-08-05T01:23:34.763Z,9.43
2022-08-05T01:26:33.274Z,11.57
2022-08-05T01:29:25.835Z,9.63
2022-08-05T01:32:06.821Z,9.00
2022-08-05T01:34:48.103Z,8.93
2022-08-05T01:37:28.226Z,10.07
2022-08-05T01:39:58.917Z,9.07
2022-08-05T01:42:46.795Z,8.90
2022-08-05T01:45:16.698Z,9.50
2022-08-05T01:47:45.731Z,9.80
2022-08-05T01:50:28.620Z,9.97
2022-08-05T01:53:05.841Z,9.90
2022-08-05T01:55:37.526Z,10.33
2022-08-05T02:02:15.950Z,9.30
2022-08-05T02:04:46.097Z,10.90
2022-08-05T02:07:22.393Z,9.83
2022-08-05T02:14:43.259Z,8.60
2022-08-05T02:18:28.245Z,10.17
2022-08-05T02:20:22.604Z,9.60
2022-08-05T02:22:59.894Z,9.77
2022-08-05T02:25:33.572Z,9.53
2022-08-05T02:28:28.460Z,10.17
2022-08-05T02:31:04.136Z,10.50
2022-08-05T02:33:38.912Z,10.00
2022-08-05T02:36:13.762Z,10.70
2022-08-05T02:38:52.739Z,10.50
2022-08-05T02:41:23.570Z,11.10
2022-08-05T02:44:02.478Z,11.30
2022-08-05T02:46:53.738Z,11.53
2022-08-05T02:49:26.724Z,10.90
2022-08-05T02:52:04.305Z,11.47
2022-08-05T02:54:35.982Z,9.60
2022-08-05T02:57:10.281Z,10.50
2022-08-05T02:59:57.863Z,10.10
2022-08-05T03:02:31.877Z,10.47
2022-08-05T03:05:00.231Z,10.40
2022-08-05T03:07:59.219Z,10.23
2022-08-05T03:10:21.961Z,10.63
2022-08-05T03:12:54.453Z,10.70
2022-08-05T03:15:24.137Z,10.90
2022-08-05T03:17:57.611Z,11.63
2022-08-05T03:20:25.193Z,10.90
2022-08-05T03:22:57.256Z,10.20
2022-08-05T03:25:32.630Z,10.03
2022-08-05T03:28:15.007Z,11.20
2022-08-05T03:30:49.471Z,11.40
2022-08-05T03:33:17.534Z,11.73
2022-08-05T03:35:49.920Z,11.70
2022-08-05T03:38:24.022Z,11.87
2022-08-05T03:41:00.880Z,10.73
2022-08-05T03:44:08.666Z,10.30
2022-08-05T03:46:23.493Z,10.90
2022-08-05T03:48:57.303Z,11.07
2022-08-05T03:52:38.456Z,10.10
2022-08-05T03:55:52.749Z,10.57
2022-08-05T03:57:45.864Z,11.53
2022-08-05T04:00:17.494Z,10.70
2022-08-05T04:02:58.718Z,10.83
2022-08-05T04:05:35.812Z,10.20
2022-08-05T04:08:30.056Z,11.80
2022-08-05T04:10:56.552Z,10.60
2022-08-05T04:13:26.104Z,10.33
2022-08-05T04:16:14.534Z,10.97
2022-08-05T04:18:41.961Z,11.47
2022-08-05T04:21:17.769Z,10.53
2022-08-05T04:24:05.875Z,10.97
2022-08-05T04:26:34.093Z,9.90
2022-08-05T04:29:07.478Z,11.13
2022-08-05T04:31:38.800Z,11.30
2022-08-05T04:34:32.968Z,11.93
2022-08-05T04:36:53.651Z,11.67
2022-08-05T04:39:21.709Z,11.23
2022-08-05T04:41:51.072Z,11.57
2022-08-05T04:44:29.134Z,13.00
2022-08-05T04:46:59.346Z,12.60
2022-08-05T04:49:38.608Z,13.53
2022-08-05T04:52:16.207Z,14.03
2022-08-05T04:54:43.444Z,13.50
2022-08-05T04:57:10.595Z,14.67
2022-08-05T04:59:40.495Z,14.40
2022-08-05T05:02:36.202Z,14.00
2022-08-05T05:05:01.831Z,15.50
2022-08-05T05:07:32.794Z,13.57
2022-08-05T05:10:06.333Z,14.67
2022-08-05T05:12:33.736Z,14.57
2022-08-05T05:15:06.114Z,14.57
2022-08-05T05:17:57.159Z,14.20
2022-08-05T05:20:28.253Z,15.17
2022-08-05T05:22:57.478Z,15.20
2022-08-05T05:25:40.390Z,13.47
2022-08-05T05:28:09.316Z,15.20
2022-08-05T05:30:37.968Z,14.53
2022-08-05T05:33:13.891Z,14.00
2022-08-05T05:35:45.532Z,13.47
2022-08-05T05:38:13.702Z,14.50
2022-08-05T05:40:49.884Z,14.27
2022-08-05T05:43:54.607Z,13.70
2022-08-05T05:46:17.509Z,14.70
2022-08-05T05:48:47.792Z,14.50
2022-08-05T05:51:28.036Z,14.17
2022-08-05T05:53:59.846Z,13.23
2022-08-05T05:56:34.412Z,13.30
2022-08-05T05:59:07.899Z,12.87
2022-08-05T06:01:40.991Z,14.27
2022-08-05T06:04:24.565Z,14.30
2022-08-05T06:06:51.686Z,13.37
2022-08-05T06:09:25.392Z,12.47
2022-08-05T06:12:02.042Z,13.93
2022-08-05T06:14:34.776Z,12.50
2022-08-05T06:17:52.376Z,12.40
2022-08-05T06:19:56.882Z,11.87
2022-08-05T06:22:33.906Z,12.20
2022-08-05T06:25:59.431Z,11.70
2022-08-05T06:28:12.210Z,11.83
2022-08-05T06:30:39.673Z,12.70
2022-08-05T06:33:09.896Z,11.80
2022-08-05T06:36:08.343Z,10.70
2022-08-05T06:38:36.050Z,11.20
2022-08-05T06:41:07.932Z,12.33
2022-08-05T06:43:57.634Z,12.70
2022-08-05T06:46:29.836Z,12.80
2022-08-05T06:49:01.196Z,13.43
2022-08-05T06:51:30.183Z,11.60
2022-08-05T06:54:00.243Z,12.37
2022-08-05T06:56:33.334Z,11.83
2022-08-05T06:59:08.342Z,12.17
2022-08-05T07:01:36.962Z,12.20
2022-08-05T07:04:04.202Z,11.33
2022-08-05T07:06:31.812Z,11.00
2022-08-05T07:09:03.852Z,11.80
2022-08-05T07:11:37.125Z,11.60
2022-08-05T07:14:29.946Z,10.53
2022-08-05T07:18:08.130Z,10.63
2022-08-05T07:20:31.514Z,10.10
2022-08-05T07:22:39.034Z,10.10
2022-08-05T07:25:22.663Z,10.40
2022-08-05T07:28:02.313Z,9.73
2022-08-05T07:30:38.508Z,9.60
2022-08-05T07:33:16.008Z,9.37
2022-08-05T07:36:05.387Z,9.37
2022-08-05T07:38:42.683Z,9.03
2022-08-05T07:42:12.893Z,9.30
2022-08-05T07:44:19.210Z,9.70
2022-08-05T07:46:49.376Z,8.83
2022-08-05T07:49:18.575Z,8.80
2022-08-05T07:51:52.967Z,9.30
2022-08-05T07:54:31.112Z,8.20
2022-08-05T07:57:22.860Z,9.23
2022-08-05T07:59:49.813Z,8.23
2022-08-05T08:02:18.009Z,9.60
2022-08-05T08:04:49.620Z,8.57
2022-08-05T08:07:22.456Z,9.20
2022-08-05T08:09:53.034Z,9.07
2022-08-05T08:12:35.457Z,8.67
2022-08-05T08:15:15.141Z,10.20
2022-08-05T08:17:52.635Z,9.30
2022-08-05T08:20:59.896Z,9.57
2022-08-05T08:24:01.070Z,7.97
2022-08-05T08:26:02.628Z,8.83
2022-08-05T08:28:36.849Z,8.87
2022-08-05T08:31:09.883Z,9.20
2022-08-05T08:33:42.117Z,7.40
2022-08-05T08:36:38.428Z,8.40
2022-08-05T08:38:58.326Z,7.87
2022-08-05T08:41:52.067Z,7.20
2022-08-05T08:45:19.857Z,7.40
2022-08-05T08:47:48.093Z,7.90
2022-08-05T08:50:13.042Z,7.07
2022-08-05T08:52:54.539Z,6.60
2022-08-05T08:56:02.773Z,7.57
2022-08-05T08:58:12.869Z,8.00
2022-08-05T09:00:43.008Z,7.40
2022-08-05T09:03:12.444Z,7.17
2022-08-05T09:06:07.851Z,7.27
2022-08-05T09:08:30.722Z,7.53
2022-08-05T09:10:58.700Z,8.10
2022-08-05T09:13:31.405Z,7.67
2022-08-05T09:15:59.759Z,7.60
2022-08-05T09:18:27.141Z,6.70
2022-08-05T09:20:54.772Z,7.60
2022-08-05T09:23:27.118Z,7.90
2022-08-05T09:26:20.795Z,7.27
2022-08-05T09:28:49.657Z,6.83
2022-08-05T09:31:43.729Z,7.97
2022-08-05T09:34:09.807Z,7.37
2022-08-05T09:36:55.602Z,7.17
2022-08-05T09:39:41.897Z,6.90
2022-08-05T09:42:24.142Z,7.87
2022-08-05T09:45:03.348Z,7.77
2022-08-05T09:47:56.337Z,7.73
2022-08-05T09:50:44.866Z,7.10
2022-08-05T09:53:22.807Z,7.30
2022-08-05T09:56:04.639Z,6.97
2022-08-05T09:58:41.886Z,7.50
2022-08-05T10:01:15.706Z,7.13
2022-08-05T10:04:10.662Z,7.30
2022-08-05T10:06:54.719Z,7.63
2022-08-05T10:09:27.265Z,8.10
2022-08-05T10:11:55.099Z,7.07
2022-08-05T10:14:32.231Z,6.90
2022-08-05T10:17:37.188Z,7.03
2022-08-05T10:20:10.965Z,8.03
2022-08-05T10:22:43.027Z,7.50
2022-08-05T10:25:16.026Z,7.83
2022-08-05T10:28:13.573Z,6.70
2022-08-05T10:32:03.035Z,7.40
2022-08-05T10:33:18.063Z,7.37
2022-08-05T10:35:50.993Z,7.17
2022-08-05T10:38:29.893Z,8.03
2022-08-05T10:41:45.021Z,7.63
2022-08-05T10:44:19.275Z,7.53
2022-08-05T10:46:53.868Z,7.50
2022-08-05T10:49:27.383Z,7.37
2022-08-05T10:52:05.431Z,7.10
2022-08-05T10:54:56.232Z,6.83
2022-08-05T10:57:30.918Z,7.60
2022-08-05T11:00:20.776Z,7.57
2022-08-05T11:03:24.834Z,7.50
2022-08-05T11:06:30.824Z,7.27
2022-08-05T11:09:39.543Z,6.60
2022-08-05T11:12:42.317Z,7.07
2022-08-05T11:15:21.019Z,6.77
2022-08-05T11:17:58.067Z,6.90
2022-08-05T11:20:45.328Z,6.80
2022-08-05T11:24:04.618Z,6.33
2022-08-05T11:26:43.522Z,6.80
2022-08-05T11:29:41.213Z,6.70
2022-08-05T11:32:29.325Z,6.73
2022-08-05T11:34:57.845Z,6.33
2022-08-05T11:38:37.398Z,6.83
2022-08-05T11:41:34.545Z,7.30
2022-08-05T11:44:11.727Z,6.40
2022-08-05T11:46:58.744Z,6.63
2022-08-05T11:49:35.487Z,6.33
2022-08-05T11:52:08.810Z,6.20
2022-08-05T11:54:41.448Z,6.47
2022-08-05T11:57:26.033Z,5.70
2022-08-05T11:59:55.625Z,5.80
2022-08-05T12:02:33.474Z,4.97
2022-08-05T12:05:07.582Z,6.10
2022-08-05T12:08:08.864Z,6.93
2022-08-05T12:10:43.093Z,5.70
2022-08-05T12:13:27.755Z,5.80
2022-08-05T12:16:14.742Z,5.30
2022-08-05T12:18:52.105Z,5.50
2022-08-05T12:21:34.377Z,5.63
2022-08-05T12:24:08.940Z,5.23
2022-08-05T12:26:51.503Z,4.77
2022-08-05T12:29:27.342Z,4.80
2022-08-05T12:31:58.013Z,5.27
2022-08-05T12:34:37.218Z,4.70
2022-08-05T12:37:17.574Z,4.90
2022-08-05T12:39:53.926Z,4.57
2022-08-05T12:42:25.351Z,5.30
2022-08-05T12:44:52.757Z,4.90
2022-08-05T12:47:31.033Z,4.80
2022-08-05T12:50:04.719Z,4.67
2022-08-05T12:52:39.033Z,4.67
2022-08-05T12:55:23.861Z,4.10
2022-08-05T12:58:48.880Z,4.40
2022-08-05T13:01:59.712Z,4.93
2022-08-05T13:03:43.144Z,4.83
2022-08-05T13:06:17.658Z,4.83
2022-08-05T13:08:52.245Z,4.30
2022-08-05T13:11:59.814Z,4.97
2022-08-05T13:14:20.335Z,4.90
2022-08-05T13:16:56.837Z,5.10
2022-08-05T13:19:27.384Z,5.07
2022-08-05T13:22:14.338Z,5.03
2022-08-05T13:24:58.236Z,4.50
2022-08-05T13:27:50.250Z,5.03
2022-08-05T13:30:35.145Z,4.13
2022-08-05T13:33:03.942Z,4.60
2022-08-05T13:35:47.330Z,5.20
2022-08-05T13:38:30.624Z,4.77
2022-08-05T13:41:00.073Z,4.90
2022-08-05T13:43:45.235Z,5.50
2022-08-05T13:46:16.290Z,4.50
2022-08-05T13:49:00.913Z,4.50
2022-08-05T13:51:40.422Z,5.03
2022-08-05T13:54:12.721Z,4.27
2022-08-05T13:56:50.558Z,4.30
2022-08-05T13:59:24.812Z,4.53
2022-08-05T14:02:00.286Z,4.60
2022-08-05T14:04:53.798Z,5.23
2022-08-05T14:07:59.634Z,4.37
2022-08-05T14:10:28.758Z,4.20
2022-08-05T14:12:58.814Z,4.63
2022-08-05T14:16:08.394Z,5.00
2022-08-05T14:18:18.232Z,4.83
2022-08-05T14:20:48.383Z,4.73
2022-08-05T14:23:23.335Z,4.57
2022-08-05T14:25:57.909Z,5.23
2022-08-05T14:28:30.836Z,4.67
2022-08-05T14:31:01.780Z,4.87
2022-08-05T14:33:32.592Z,4.53
2022-08-05T14:36:21.296Z,5.00
2022-08-05T14:38:49.802Z,5.03
2022-08-05T14:41:18.679Z,4.47
2022-08-05T14:44:02.697Z,4.30
2022-08-05T14:46:34.977Z,4.83
2022-08-05T14:49:07.551Z,4.90
2022-08-05T14:51:42.755Z,5.00
2022-08-05T14:54:27.690Z,4.57
2022-08-05T14:56:58.747Z,4.43
2022-08-05T14:59:29.387Z,4.87
2022-08-05T15:02:02.883Z,4.30
2022-08-05T15:04:30.059Z,4.20
2022-08-05T15:06:57.177Z,4.37
2022-08-05T15:09:51.790Z,4.50
2022-08-05T15:12:16.789Z,4.43
2022-08-05T15:14:50.488Z,4.80
2022-08-05T15:17:47.132Z,4.37
2022-08-05T15:20:18.335Z,4.40
2022-08-05T15:22:54.230Z,4.30
2022-08-05T15:25:51.060Z,4.97
2022-08-05T15:28:15.528Z,4.20
2022-08-05T15:30:45.537Z,4.40
2022-08-05T15:33:13.093Z,4.30
2022-08-05T15:36:00.197Z,4.97
2022-08-05T15:38:41.751Z,4.13
2022-08-05T15:41:21.973Z,4.20
2022-08-05T15:43:54.681Z,4.60
2022-08-05T15:46:24.645Z,4.60
2022-08-05T15:49:01.185Z,4.13
2022-08-05T15:52:03.684Z,4.40
2022-08-05T15:54:34.898Z,4.13
2022-08-05T15:57:03.022Z,4.27
2022-08-05T15:59:36.415Z,4.10
2022-08-05T16:02:09.807Z,3.70
2022-08-05T16:04:43.417Z,4.37
2022-08-05T16:07:11.660Z,4.27
2022-08-05T16:09:41.738Z,4.50
2022-08-05T16:12:09.842Z,4.10
2022-08-05T16:14:38.726Z,4.90
2022-08-05T16:17:06.449Z,5.17
2022-08-05T16:20:05.554Z,5.43
2022-08-05T16:22:27.437Z,5.57
2022-08-05T16:24:54.940Z,5.43
2022-08-05T16:27:32.349Z,5.50
2022-08-05T16:30:23.258Z,5.80
2022-08-05T16:32:54.761Z,5.30
2022-08-05T16:35:27.772Z,5.93
2022-08-05T16:38:03.340Z,5.43
2022-08-05T16:40:42.285Z,4.97
2022-08-05T16:43:16.589Z,5.43
2022-08-05T16:46:06.331Z,5.37
2022-08-05T16:48:35.144Z,5.67
2022-08-05T16:51:03.925Z,5.40
2022-08-05T16:54:04.181Z,5.83
2022-08-05T16:56:27.616Z,5.70
2022-08-05T16:58:56.022Z,5.53
2022-08-05T17:01:24.287Z,5.73
2022-08-05T17:03:52.234Z,5.60
2022-08-05T17:06:20.699Z,6.00
2022-08-05T17:08:54.422Z,5.90
2022-08-05T17:11:25.381Z,5.67
2022-08-05T17:14:00.244Z,6.23
2022-08-05T17:16:36.017Z,6.10
2022-08-05T17:19:09.402Z,6.50
2022-08-05T17:21:39.694Z,5.83
2022-08-05T17:24:19.581Z,5.77
2022-08-05T17:26:58.273Z,5.87
2022-08-05T17:29:33.324Z,6.00
2022-08-05T17:32:11.644Z,6.17
2022-08-05T17:34:49.110Z,5.40
2022-08-05T17:37:40.387Z,6.60
2022-08-05T17:40:12.175Z,6.50
2022-08-05T17:42:50.960Z,6.53
2022-08-05T17:45:29.717Z,6.57
2022-08-05T17:48:08.112Z,5.63
2022-08-05T17:50:35.713Z,6.30
2022-08-05T17:53:08.488Z,6.23
2022-08-05T17:55:39.425Z,6.23
2022-08-05T17:58:11.031Z,6.30
2022-08-05T18:00:45.417Z,6.53
2022-08-05T18:03:39.381Z,6.07
2022-08-05T18:06:12.236Z,6.60
2022-08-05T18:08:52.376Z,6.33
2022-08-05T18:11:24.368Z,6.40
2022-08-05T18:14:07.548Z,5.93
2022-08-05T18:16:51.415Z,6.70
2022-08-05T18:19:23.014Z,6.07
2022-08-05T18:22:08.589Z,6.87
2022-08-05T18:24:39.622Z,6.37
2022-08-05T18:27:18.607Z,6.33
2022-08-05T18:29:53.517Z,6.37
2022-08-05T18:32:28.090Z,6.07
2022-08-05T18:34:56.117Z,7.27
2022-08-05T18:37:34.742Z,6.20
2022-08-05T18:40:33.838Z,5.97
2022-08-05T18:42:57.793Z,6.23
2022-08-05T18:45:24.978Z,6.00
2022-08-05T18:48:11.398Z,6.53
2022-08-05T18:52:06.034Z,6.60
2022-08-05T18:53:51.080Z,6.60
2022-08-05T18:56:21.687Z,6.20
2022-08-05T18:58:50.928Z,6.27
2022-08-05T19:01:21.919Z,6.10
2022-08-05T19:04:12.170Z,6.17
2022-08-05T19:06:44.842Z,6.03
2022-08-05T19:09:12.718Z,6.00
2022-08-05T19:12:00.041Z,5.73
2022-08-05T19:14:52.155Z,6.70
2022-08-05T19:17:14.708Z,6.07
2022-08-05T19:19:46.750Z,6.27
2022-08-05T19:22:17.294Z,6.20
2022-08-05T19:24:55.936Z,6.43
2022-08-05T19:27:27.741Z,5.97
2022-08-05T19:29:57.887Z,6.50
2022-08-05T19:32:26.171Z,6.83
2022-08-05T19:34:56.185Z,5.80
2022-08-05T19:37:29.808Z,6.70
2022-08-05T19:40:02.760Z,6.90
2022-08-05T19:42:36.424Z,6.13
2022-08-05T19:45:07.881Z,6.53
2022-08-05T19:47:37.196Z,7.17
2022-08-05T19:50:07.893Z,6.73
2022-08-05T19:52:37.642Z,6.67
2022-08-05T19:55:07.203Z,7.13
2022-08-05T19:58:14.508Z,6.80
2022-08-05T20:00:40.120Z,6.90
2022-08-05T20:03:09.215Z,6.67
2022-08-05T20:05:43.160Z,6.57
2022-08-05T20:08:17.721Z,8.10
2022-08-05T20:10:44.795Z,6.10
2022-08-05T20:13:18.348Z,6.37
2022-08-05T20:15:57.671Z,5.00
2022-08-05T20:18:33.910Z,5.60
2022-08-05T20:21:06.681Z,4.83
2022-08-05T20:23:39.226Z,4.87
2022-08-05T20:26:27.201Z,5.10
2022-08-05T20:28:57.923Z,4.90
2022-08-05T20:31:43.132Z,4.83
2022-08-05T20:34:16.379Z,4.93
2022-08-05T20:36:44.132Z,5.20
2022-08-05T20:39:16.103Z,5.30
2022-08-05T20:41:45.285Z,5.90
2022-08-05T20:44:18.978Z,5.90
2022-08-05T20:46:58.938Z,6.03
2022-08-05T20:49:26.427Z,5.23
2022-08-05T20:51:55.701Z,5.50
2022-08-05T20:54:43.463Z,5.40
2022-08-05T20:57:24.632Z,5.10
2022-08-05T21:00:20.980Z,5.80
2022-08-05T21:02:57.027Z,4.93
2022-08-05T21:05:25.391Z,5.97
2022-08-05T21:08:05.881Z,5.73
2022-08-05T21:10:34.068Z,5.97
2022-08-05T21:13:11.085Z,5.57
2022-08-05T21:15:44.445Z,5.13
2022-08-05T21:18:18.132Z,4.10
2022-08-05T21:20:45.161Z,5.03
2022-08-05T21:23:14.144Z,4.90
2022-08-05T21:25:44.821Z,4.97
2022-08-05T21:28:12.316Z,5.83
2022-08-05T21:30:45.771Z,5.67
2022-08-05T21:33:22.403Z,4.80
2022-08-05T21:35:58.606Z,5.70
2022-08-05T21:38:27.623Z,5.80
2022-08-05T21:40:55.086Z,5.53
2022-08-05T21:43:24.634Z,4.67
2022-08-05T21:45:57.752Z,6.30
2022-08-05T21:48:28.905Z,5.40
2022-08-05T21:50:57.246Z,5.70
2022-08-05T21:53:27.757Z,5.37
2022-08-05T21:56:09.875Z,5.00
2022-08-05T21:58:57.077Z,5.37
2022-08-05T22:01:25.959Z,5.57
2022-08-05T22:03:53.851Z,5.50
2022-08-05T22:06:35.499Z,5.43
2022-08-05T22:09:13.072Z,6.17
2022-08-05T22:11:41.767Z,5.73
2022-08-05T22:14:34.265Z,5.53
2022-08-05T22:17:03.091Z,4.27
2022-08-05T22:20:03.079Z,4.03
2022-08-05T22:22:27.408Z,3.30
2022-08-05T22:25:21.678Z,3.60
2022-08-05T22:28:09.438Z,3.07
2022-08-05T22:30:55.426Z,3.17
2022-08-05T22:33:57.255Z,2.93
2022-08-05T22:36:10.095Z,3.87
2022-08-05T22:38:37.360Z,3.03
2022-08-05T22:41:09.533Z,3.13
2022-08-05T22:43:38.152Z,3.37
2022-08-05T22:46:13.434Z,3.50
2022-08-05T22:48:43.827Z,3.70
2022-08-05T22:51:15.923Z,3.70
2022-08-05T22:53:51.878Z,3.67
2022-08-05T22:56:30.370Z,3.50
2022-08-05T22:59:03.936Z,3.40
2022-08-05T23:02:05.227Z,3.60
2022-08-05T23:04:34.702Z,4.03
2022-08-05T23:07:02.272Z,4.07
2022-08-05T23:09:57.953Z,3.13
2022-08-05T23:12:18.175Z,3.40
2022-08-05T23:14:45.343Z,4.00
2022-08-05T23:17:34.329Z,3.17
2022-08-05T23:20:10.089Z,3.07
2022-08-05T23:22:47.707Z,3.63
2022-08-05T23:25:51.362Z,4.20
2022-08-05T23:28:06.996Z,3.20
2022-08-05T23:30:40.473Z,3.90
2022-08-05T23:33:22.435Z,3.70
2022-08-05T23:35:56.003Z,4.30
2022-08-05T23:38:26.780Z,4.37
2022-08-05T23:40:54.197Z,4.13
2022-08-05T23:43:25.229Z,4.00
2022-08-05T23:46:20.716Z,3.60
2022-08-05T23:49:01.171Z,5.07
2022-08-05T23:51:55.040Z,4.50
2022-08-05T23:54:38.139Z,4.20
2022-08-05T23:57:07.832Z,4.03
